Time;durP1;ratioP1;P1;durP2;ratioP2;P2;SDS_P1;SDS_P2;PMS_P1;PMS_P2;Temp;Humidity;BMP_temperature;BMP_pressure;BME280_temperature;BME280_humidity;BME280_pressure;Samples;Min_cycle;Max_cycle;Signal;HPM_P1;HPM_P2
2023/09/24 00:04:59;;;;;;;1.25;0.50;;;;;;;11.45;60.17;98366.28;10456690;28;20053;-63
2023/09/24 00:10:20;;;;;;;2.53;0.60;;;;;;;11.42;60.77;98359.06;10456088;28;20045;-63
2023/09/24 00:15:41;;;;;;;2.72;0.60;;;;;;;11.41;60.64;98352.00;10455968;28;20041;-63
2023/09/24 00:21:03;;;;;;;2.33;0.60;;;;;;;11.38;61.05;98355.97;10454952;28;20049;-63
2023/09/24 00:26:25;;;;;;;1.95;0.50;;;;;;;11.36;61.20;98355.06;10455656;28;20049;-63
2023/09/24 00:31:47;;;;;;;3.00;0.70;;;;;;;11.33;61.01;98370.97;10455401;28;20072;-63
2023/09/24 00:37:09;;;;;;;1.50;0.63;;;;;;;11.28;61.55;98360.06;10455018;28;20045;-63
2023/09/24 00:42:31;;;;;;;2.25;0.73;;;;;;;11.25;61.70;98366.84;10455038;28;20041;-63
2023/09/24 00:47:54;;;;;;;2.15;0.70;;;;;;;11.23;61.89;98373.00;10440608;28;20049;-63
2023/09/24 00:53:15;;;;;;;2.72;0.70;;;;;;;11.18;62.28;98380.34;10454699;28;20049;-63
2023/09/24 00:58:36;;;;;;;2.83;0.52;;;;;;;11.14;62.67;98382.09;10453880;28;20049;-63
2023/09/24 01:03:57;;;;;;;2.83;0.57;;;;;;;11.10;62.46;98379.75;10439987;28;20057;-64
2023/09/24 01:09:19;;;;;;;2.53;0.50;;;;;;;11.03;62.60;98391.78;10439980;28;20045;-64
2023/09/24 01:14:40;;;;;;;2.65;0.60;;;;;;;10.96;62.85;98405.84;10447329;28;20049;-64
2023/09/24 01:20:03;;;;;;;2.00;0.47;;;;;;;10.92;63.48;98411.88;10460871;28;20040;-63
2023/09/24 01:25:24;;;;;;;2.83;0.70;;;;;;;10.95;63.65;98421.88;10433649;28;20048;-63
2023/09/24 01:30:45;;;;;;;2.65;0.57;;;;;;;10.94;63.83;98426.00;10460304;28;20049;-63
2023/09/24 01:36:09;;;;;;;4.88;2.10;;;;;;;10.93;64.17;98426.59;10460639;28;20041;-63
2023/09/24 01:41:32;;;;;;;3.42;0.88;;;;;;;10.89;64.40;98432.59;10460890;28;20626;-64
2023/09/24 01:46:53;;;;;;;2.33;0.50;;;;;;;10.86;64.69;98442.13;10461238;28;20044;-63
2023/09/24 01:52:15;;;;;;;2.45;0.60;;;;;;;10.80;64.92;98452.81;10459582;28;20407;-63
2023/09/24 01:57:36;;;;;;;2.92;0.60;;;;;;;10.72;65.31;98460.59;10459511;28;20052;-63
2023/09/24 02:02:59;;;;;;;3.42;0.70;;;;;;;10.67;65.61;98461.56;10460000;28;20049;-63
2023/09/24 02:08:20;;;;;;;1.98;0.50;;;;;;;10.68;65.85;98463.06;10459078;28;20051;-63
2023/09/24 02:13:42;;;;;;;1.27;0.30;;;;;;;10.68;65.78;98469.38;10459020;28;20107;-63
2023/09/24 02:19:03;;;;;;;0.88;0.47;;;;;;;10.66;66.03;98476.84;10459060;28;20061;-63
2023/09/24 02:24:25;;;;;;;1.73;0.60;;;;;;;10.62;65.62;98482.88;10457858;28;20044;-63
2023/09/24 02:29:48;;;;;;;1.17;0.40;;;;;;;10.60;66.15;98475.03;10458798;28;20079;-63
2023/09/24 02:35:10;;;;;;;3.58;0.50;;;;;;;10.59;66.33;98484.75;10430868;28;20099;-63
2023/09/24 02:40:31;;;;;;;1.67;0.60;;;;;;;10.57;66.49;98489.44;10444438;28;20505;-63
2023/09/24 02:45:52;;;;;;;1.40;0.50;;;;;;;10.55;66.46;98490.00;10459243;28;20049;-64
2023/09/24 02:51:13;;;;;;;2.42;0.70;;;;;;;10.49;66.71;98495.09;10457618;28;20064;-63
2023/09/24 02:56:34;;;;;;;1.83;0.40;;;;;;;10.47;67.08;98503.31;10458304;28;20049;-63
2023/09/24 03:01:56;;;;;;;3.40;0.90;;;;;;;10.46;66.95;98501.84;10457843;28;20036;-63
2023/09/24 03:07:19;;;;;;;2.55;0.75;;;;;;;10.49;67.12;98511.84;10458058;28;20060;-65
2023/09/24 03:12:40;;;;;;;1.17;0.50;;;;;;;10.47;67.29;98510.97;10458352;28;20463;-63
2023/09/24 03:18:02;;;;;;;1.33;0.40;;;;;;;10.43;67.46;98519.75;10442753;28;20053;-63
2023/09/24 03:23:24;;;;;;;2.70;0.45;;;;;;;10.41;67.43;98525.16;10456329;28;20048;-63
2023/09/24 03:28:47;;;;;;;1.17;0.40;;;;;;;10.35;67.31;98529.53;10442368;28;20056;-63
2023/09/24 03:34:09;;;;;;;2.17;0.70;;;;;;;10.29;68.24;98524.19;10442343;28;20041;-63
2023/09/24 03:39:30;;;;;;;1.42;0.70;;;;;;;10.25;68.38;98527.41;10456294;28;20041;-63
2023/09/24 03:44:51;;;;;;;2.85;0.60;;;;;;;10.23;68.35;98526.47;10442368;28;20040;-64
2023/09/24 03:50:13;;;;;;;2.67;0.70;;;;;;;10.24;68.99;98534.28;10457774;28;20045;-67
2023/09/24 03:55:35;;;;;;;2.25;0.70;;;;;;;10.22;68.81;98541.75;10460244;28;20052;-69
2023/09/24 04:01:09;;;;;;;1.77;0.63;;;;;;;10.20;69.46;98556.22;10456003;28;20072;-63
2023/09/24 04:06:30;;;;;;;2.28;0.50;;;;;;;10.18;69.24;98561.66;10440807;28;20053;-63
2023/09/24 04:11:51;;;;;;;4.13;0.70;;;;;;;10.19;69.23;98556.81;10454762;28;20114;-63
2023/09/24 04:17:12;;;;;;;2.80;0.90;;;;;;;10.16;69.50;98555.19;10454774;28;20057;-63
2023/09/24 04:22:34;;;;;;;1.77;0.70;;;;;;;10.14;69.63;98557.81;10455701;28;20055;-63
2023/09/24 04:27:55;;;;;;;3.03;0.90;;;;;;;10.14;69.56;98571.75;10455499;28;20049;-63
2023/09/24 04:33:16;;;;;;;3.17;0.70;;;;;;;10.12;70.05;98594.63;10455604;28;20052;-63
2023/09/24 04:38:37;;;;;;;2.65;0.73;;;;;;;10.10;70.21;98582.56;10455294;28;20041;-63
2023/09/24 04:43:58;;;;;;;5.38;0.90;;;;;;;10.10;70.03;98588.16;10454512;28;20049;-63
2023/09/24 04:49:19;;;;;;;3.97;0.82;;;;;;;10.14;70.06;98592.03;10463478;28;20059;-63
2023/09/24 04:54:40;;;;;;;5.50;1.35;;;;;;;10.18;70.11;98597.19;10462263;28;20037;-63
2023/09/24 05:00:02;;;;;;;13.57;5.38;;;;;;;10.22;70.35;98609.44;10462528;28;20049;-63
2023/09/24 05:05:23;;;;;;;7.22;2.50;;;;;;;10.29;70.24;98603.06;10461903;28;20410;-63
2023/09/24 05:10:45;;;;;;;5.30;1.20;;;;;;;10.47;70.21;98611.44;10462252;28;20045;-63
2023/09/24 05:16:07;;;;;;;3.25;1.13;;;;;;;10.87;70.49;98625.16;10462273;28;20053;-63
2023/09/24 05:21:28;;;;;;;4.20;1.00;;;;;;;11.73;70.87;98633.31;10461416;28;20486;-63
2023/09/24 05:26:49;;;;;;;2.85;1.00;;;;;;;13.36;70.19;98655.84;10460873;28;20053;-63
2023/09/24 05:32:11;;;;;;;2.05;1.13;;;;;;;15.08;66.13;98664.00;10461878;28;20040;-64
2023/09/24 05:37:32;;;;;;;1.90;1.00;;;;;;;15.89;64.33;98664.81;10461456;28;20437;-64
2023/09/24 05:42:53;;;;;;;1.85;0.80;;;;;;;16.38;62.94;98670.56;10461315;28;20131;-63
2023/09/24 05:48:15;;;;;;;2.67;0.80;;;;;;;18.37;59.83;98670.38;10461315;28;20045;-63
2023/09/24 05:53:36;;;;;;;2.53;0.88;;;;;;;19.08;57.58;98671.13;10461299;28;20053;-64
2023/09/24 05:58:57;;;;;;;2.50;1.13;;;;;;;24.17;53.30;98678.81;10459435;28;20489;-64
2023/09/24 06:04:17;;;;;;;3.92;1.40;;;;;;;28.95;43.98;98681.56;10460231;28;20386;-64
2023/09/24 06:09:38;;;;;;;2.10;0.90;;;;;;;31.72;37.25;98692.03;10459891;28;20128;-65
2023/09/24 06:14:59;;;;;;;2.55;0.85;;;;;;;35.18;30.93;98697.03;10459334;28;20075;-64
2023/09/24 06:20:20;;;;;;;1.45;0.52;;;;;;;36.72;26.75;98695.56;10459613;28;20080;-65
2023/09/24 06:25:41;;;;;;;3.37;0.67;;;;;;;40.30;22.27;98708.34;10459898;28;20064;-65
2023/09/24 06:31:03;;;;;;;3.35;0.60;;;;;;;43.45;17.62;98702.72;10459144;28;20310;-68
2023/09/24 06:36:24;;;;;;;2.90;0.80;;;;;;;44.93;14.83;98714.66;10459008;28;20060;-67
2023/09/24 06:41:44;;;;;;;3.58;0.80;;;;;;;45.34;14.07;98732.94;10458859;28;20129;-68
2023/09/24 06:47:06;;;;;;;4.10;1.10;;;;;;;45.76;13.02;98743.78;10457724;28;20103;-68
2023/09/24 06:52:30;;;;;;;2.22;0.77;;;;;;;48.35;11.36;98740.16;10458570;28;20107;-68
2023/09/24 06:57:51;;;;;;;2.95;0.90;;;;;;;48.72;9.91;98753.06;10458134;28;20560;-68
2023/09/24 07:03:12;;;;;;;1.95;0.77;;;;;;;46.85;10.39;98753.28;10458049;28;20537;-67
2023/09/24 07:08:33;;;;;;;2.90;0.90;;;;;;;49.29;9.73;98768.91;10457676;28;20053;-68
2023/09/24 07:13:55;;;;;;;2.15;0.70;;;;;;;50.45;7.63;98765.94;10457900;28;20122;-68
2023/09/24 07:19:18;;;;;;;2.55;0.70;;;;;;;51.18;7.41;98768.25;10457320;28;20065;-68
2023/09/24 07:24:39;;;;;;;1.45;0.60;;;;;;;49.43;7.96;98761.25;10457382;28;20076;-68
2023/09/24 07:30:02;;;;;;;2.55;0.60;;;;;;;49.47;8.71;98764.59;10457065;28;20414;-68
2023/09/24 07:35:23;;;;;;;2.22;0.60;;;;;;;52.03;7.19;98766.28;10456882;28;20056;-68
2023/09/24 07:40:44;;;;;;;1.48;0.50;;;;;;;53.91;6.07;98774.59;10456746;28;20463;-68
2023/09/24 07:46:05;;;;;;;1.90;0.50;;;;;;;54.97;5.33;98763.66;10456479;28;20123;-69
2023/09/24 07:51:26;;;;;;;1.73;0.57;;;;;;;54.99;5.02;98760.47;10456576;28;20162;-68
2023/09/24 07:56:47;;;;;;;4.10;0.60;;;;;;;55.05;4.83;98763.56;10456178;28;20049;-69
2023/09/24 08:02:08;;;;;;;2.38;0.55;;;;;;;54.29;5.60;98766.53;10455731;28;20049;-69
2023/09/24 08:07:32;;;;;;;2.20;0.70;;;;;;;54.50;5.14;98762.97;10456087;28;20128;-68
2023/09/24 08:12:55;;;;;;;1.52;0.70;;;;;;;54.68;4.63;98754.50;10455486;28;20078;-68
2023/09/24 08:18:17;;;;;;;2.10;0.70;;;;;;;56.13;4.82;98761.53;10456229;28;20506;-68
2023/09/24 08:23:38;;;;;;;1.77;0.50;;;;;;;56.88;4.69;98758.19;10462246;28;20449;-70
2023/09/24 08:28:59;;;;;;;1.20;0.50;;;;;;;55.47;4.42;98760.16;10464096;28;20067;-68
2023/09/24 08:34:21;;;;;;;1.58;0.63;;;;;;;54.41;4.67;98755.72;10463670;28;20041;-69
2023/09/24 08:39:42;;;;;;;1.50;0.57;;;;;;;53.60;5.13;98755.19;10463377;28;20124;-68
2023/09/24 08:45:19;;;;;;;3.47;0.57;;;;;;;52.44;5.18;98756.78;10463499;28;20053;-69
2023/09/24 08:50:41;;;;;;;1.67;0.50;;;;;;;49.86;6.57;98758.69;10463108;28;20049;-68
2023/09/24 08:56:03;;;;;;;1.73;0.40;;;;;;;48.77;7.08;98756.44;10461824;28;20045;-68
2023/09/24 09:01:24;;;;;;;1.08;0.38;;;;;;;49.35;6.99;98755.94;10462854;28;20140;-68
2023/09/24 09:06:45;;;;;;;1.88;0.70;;;;;;;50.98;6.71;98764.66;10462720;28;20141;-68
2023/09/24 09:12:06;;;;;;;2.22;0.50;;;;;;;50.59;6.54;98758.88;10462543;28;20077;-68
2023/09/24 09:17:38;;;;;;;1.27;0.40;;;;;;;50.80;6.47;98766.84;10462149;28;20120;-69
2023/09/24 09:22:59;;;;;;;1.75;0.47;;;;;;;51.18;5.64;98760.03;10462412;28;20119;-69
2023/09/24 09:28:31;;;;;;;3.10;0.40;;;;;;;50.23;6.04;98752.88;10461637;28;20064;-69
2023/09/24 09:33:52;;;;;;;1.50;0.40;;;;;;;51.10;6.22;98757.03;10461258;28;20055;-68
2023/09/24 09:39:13;;;;;;;1.85;0.43;;;;;;;52.69;5.62;98749.31;10460481;28;20136;-69
2023/09/24 09:44:34;;;;;;;1.58;0.43;;;;;;;52.04;5.29;98756.47;10460844;28;20128;-69
2023/09/24 09:49:59;;;;;;;1.20;0.40;;;;;;;45.85;8.35;98754.25;10445972;28;20124;-68
2023/09/24 09:55:20;;;;;;;1.77;0.57;;;;;;;39.32;11.43;98735.13;10460109;28;20172;-67
2023/09/24 10:00:40;;;;;;;1.55;0.50;;;;;;;41.21;12.68;98747.28;10460623;28;20054;-69
2023/09/24 10:06:01;;;;;;;1.58;0.47;;;;;;;43.80;10.21;98733.97;10460651;28;20076;-69
2023/09/24 10:11:31;;;;;;;1.67;0.47;;;;;;;45.61;9.43;98738.69;10459541;28;20073;-68
2023/09/24 10:16:52;;;;;;;1.42;0.60;;;;;;;49.06;7.56;98743.22;10460080;28;20124;-69
2023/09/24 10:22:38;;;;;;;3.03;0.57;;;;;;;47.30;7.26;98739.25;10460102;28;20056;-68
2023/09/24 10:28:06;;;;;;;1.67;0.40;;;;;;;42.33;10.41;98749.13;10459360;28;20124;-68
2023/09/24 10:33:52;;;;;;;1.52;0.40;;;;;;;39.05;13.27;98754.94;10459254;28;20495;-68
2023/09/24 10:39:14;;;;;;;1.92;0.50;;;;;;;36.17;14.92;98751.94;10459229;28;20069;-66
2023/09/24 10:44:35;;;;;;;1.77;0.60;;;;;;;41.97;11.33;98748.50;10458184;28;20072;-69
2023/09/24 10:50:15;;;;;;;1.33;0.40;;;;;;;43.98;10.15;98741.84;10458625;28;20201;-69
2023/09/24 10:55:36;;;;;;;1.38;0.40;;;;;;;43.49;9.99;98742.91;10458281;28;20119;-69
2023/09/24 11:00:57;;;;;;;2.17;0.40;;;;;;;40.02;11.43;98751.75;10458272;28;20187;-67
2023/09/24 11:06:19;;;;;;;1.98;0.50;;;;;;;32.61;16.05;98760.38;10458010;28;20503;-66
2023/09/24 11:11:40;;;;;;;1.42;0.45;;;;;;;35.89;16.30;98771.31;10442885;28;20132;-68
2023/09/24 11:17:01;;;;;;;1.70;0.60;;;;;;;38.79;13.70;98771.06;10457312;28;20072;-68
2023/09/24 11:22:23;;;;;;;2.20;0.60;;;;;;;42.06;12.93;98767.16;10442437;28;20083;-68
2023/09/24 11:27:47;;;;;;;1.80;0.50;;;;;;;42.32;10.41;98770.44;10457195;28;20650;-68
2023/09/24 11:33:16;;;;;;;1.52;0.40;;;;;;;34.43;14.76;98786.47;10456597;28;20194;-68
2023/09/24 11:38:38;;;;;;;;;;;;;;;28.59;20.60;98780.28;10457762;28;20065;-65
2023/09/24 11:43:59;;;;;;;1.20;0.50;;;;;;;28.41;21.63;98771.44;10457005;28;20019;-65
2023/09/24 11:49:20;;;;;;;1.27;0.60;;;;;;;29.21;21.53;98773.06;10456814;28;20171;-65
2023/09/24 11:54:41;;;;;;;1.38;0.45;;;;;;;28.75;21.81;98760.34;10455569;28;20110;-65
2023/09/24 12:00:02;;;;;;;2.55;0.68;;;;;;;28.16;23.44;98753.88;10456712;28;20072;-64
2023/09/24 12:05:31;;;;;;;2.22;0.93;;;;;;;27.14;24.21;98753.69;10456319;28;20073;-64
2023/09/24 12:10:54;;;;;;;1.77;0.55;;;;;;;26.04;24.92;98745.72;10456337;28;20077;-64
2023/09/24 12:16:14;;;;;;;1.85;0.60;;;;;;;23.78;27.80;98765.31;10456067;28;20528;-64
2023/09/24 12:21:36;;;;;;;2.70;1.00;;;;;;;22.23;31.34;98762.78;10456022;28;20443;-64
2023/09/24 12:26:57;;;;;;;3.70;0.90;;;;;;;21.65;33.14;98764.78;10455582;28;20112;-64
2023/09/24 12:32:17;;;;;;;2.90;0.80;;;;;;;22.40;33.78;98767.69;10455829;28;20052;-64
2023/09/24 12:37:39;;;;;;;1.90;0.90;;;;;;;23.14;33.04;98759.66;10455491;28;20494;-64
2023/09/24 12:43:00;;;;;;;1.77;0.60;;;;;;;23.53;31.40;98750.25;10455379;28;20068;-64
2023/09/24 12:48:20;;;;;;;2.53;0.60;;;;;;;23.94;31.79;98755.16;10455014;28;20167;-64
2023/09/24 12:53:41;;;;;;;2.35;0.60;;;;;;;23.73;31.04;98755.91;10455101;28;20629;-64
2023/09/24 12:59:03;;;;;;;1.90;0.70;;;;;;;22.65;31.88;98760.03;10454933;28;20041;-63
2023/09/24 13:04:24;;;;;;;1.58;0.40;;;;;;;21.76;32.34;98749.59;10454712;28;20087;-64
2023/09/24 13:09:45;;;;;;;1.25;0.40;;;;;;;21.79;33.30;98748.28;10461679;28;20045;-64
2023/09/24 13:15:07;;;;;;;0.98;0.20;;;;;;;22.29;33.40;98740.25;10461424;28;20045;-64
2023/09/24 13:20:27;;;;;;;1.13;0.40;;;;;;;22.67;33.11;98745.88;10462142;28;20148;-64
2023/09/24 13:25:49;;;;;;;2.53;0.30;;;;;;;22.57;33.27;98746.25;10461564;28;20477;-64
2023/09/24 13:31:10;;;;;;;1.30;0.50;;;;;;;22.22;33.40;98747.13;10461737;28;20087;-64
2023/09/24 13:36:31;;;;;;;1.40;0.50;;;;;;;21.88;33.79;98744.38;10461352;28;20133;-64
2023/09/24 13:41:52;;;;;;;3.00;0.80;;;;;;;21.75;34.60;98742.44;10461235;28;20057;-64
2023/09/24 13:47:15;;;;;;;3.17;0.70;;;;;;;21.51;34.92;98750.72;10461262;28;20467;-64
2023/09/24 13:52:36;;;;;;;1.17;0.30;;;;;;;21.42;34.98;98751.78;10461018;28;20462;-63
2023/09/24 13:57:56;;;;;;;1.42;0.35;;;;;;;20.83;35.33;98752.84;10460736;28;20061;-64
2023/09/24 14:03:21;;;;;;;2.90;0.43;;;;;;;20.42;35.99;98755.25;10460508;28;20084;-64
2023/09/24 14:14:21;;;;;;;1.80;0.40;;;;;;;20.81;36.51;98738.59;10460641;28;20125;-64
2023/09/24 14:19:42;;;;;;;1.05;0.32;;;;;;;20.71;36.44;98734.56;10458701;28;20069;-64
2023/09/24 14:25:06;;;;;;;2.00;0.30;;;;;;;20.62;36.47;98742.00;10459850;28;20075;-64
2023/09/24 14:30:26;;;;;;;1.25;0.38;;;;;;;20.37;36.84;98742.28;10460057;28;20463;-64
2023/09/24 14:35:47;;;;;;;2.15;0.32;;;;;;;20.27;37.29;98726.28;10459491;28;20045;-64
2023/09/24 14:41:09;;;;;;;1.77;0.30;;;;;;;20.25;37.26;98720.50;10459226;28;20134;-64
2023/09/24 14:46:30;;;;;;;1.10;0.30;;;;;;;20.05;36.61;98725.25;10458821;28;20482;-64
2023/09/24 14:51:51;;;;;;;1.83;0.30;;;;;;;19.97;36.84;98719.22;10457649;28;20439;-64
2023/09/24 14:57:11;;;;;;;0.63;0.10;;;;;;;19.72;36.91;98728.69;10458375;28;20530;-64
2023/09/24 15:02:32;;;;;;;0.85;0.20;;;;;;;19.50;37.14;98719.13;10457960;28;20136;-63
2023/09/24 15:07:53;;;;;;;1.40;0.30;;;;;;;19.40;37.75;98713.69;10457663;28;20049;-64
2023/09/24 15:13:14;;;;;;;1.40;0.38;;;;;;;19.19;38.38;98725.38;10457625;28;20068;-64
2023/09/24 15:18:35;;;;;;;3.25;0.50;;;;;;;18.91;39.46;98724.69;10457311;28;20495;-64
2023/09/24 15:23:56;;;;;;;1.17;0.40;;;;;;;18.83;40.12;98731.44;10457298;28;20053;-63
2023/09/24 15:29:16;;;;;;;2.50;0.60;;;;;;;18.73;41.02;98735.84;10457013;28;20132;-64
2023/09/24 15:34:37;;;;;;;4.18;0.55;;;;;;;18.47;41.75;98730.25;10456854;28;20183;-63
2023/09/24 15:39:58;;;;;;;1.88;0.57;;;;;;;18.25;42.20;98727.00;10456936;28;20124;-64
2023/09/24 15:45:18;;;;;;;1.08;0.30;;;;;;;18.05;42.39;98742.88;10456490;28;20076;-64
2023/09/24 15:50:46;;;;;;;3.40;0.30;;;;;;;17.84;43.04;98734.63;10455566;28;20471;-64
2023/09/24 15:56:08;;;;;;;1.15;0.43;;;;;;;17.73;42.87;98744.63;10456499;28;20501;-64
2023/09/24 16:01:29;;;;;;;2.58;0.60;;;;;;;17.65;43.36;98750.53;10454874;28;20137;-63
2023/09/24 16:06:49;;;;;;;2.05;0.40;;;;;;;17.64;43.60;98754.72;10456574;28;20484;-63
2023/09/24 16:12:10;;;;;;;1.00;0.40;;;;;;;17.53;43.68;98751.94;10456333;28;20136;-63
2023/09/24 16:17:31;;;;;;;1.35;0.40;;;;;;;17.41;44.39;98760.47;10455872;28;20064;-63
2023/09/24 16:22:52;;;;;;;2.85;1.08;;;;;;;17.20;45.55;98767.06;10456353;28;20116;-63
2023/09/24 16:28:13;;;;;;;9.60;5.57;;;;;;;16.98;45.29;98771.38;10455807;28;20045;-63
2023/09/24 16:33:35;;;;;;;3.08;1.40;;;;;;;16.70;46.29;98779.66;10455569;28;20470;-63
2023/09/24 16:38:55;;;;;;;2.35;0.73;;;;;;;16.53;46.42;98788.44;10455341;28;20091;-63
2023/09/24 16:44:16;;;;;;;1.90;0.80;;;;;;;16.40;46.99;98789.03;10462013;28;20053;-64
2023/09/24 16:49:37;;;;;;;2.40;0.70;;;;;;;16.17;47.13;98795.38;10463439;28;20045;-63
2023/09/24 16:54:59;;;;;;;1.38;0.60;;;;;;;16.04;47.35;98802.34;10463378;28;20459;-64
2023/09/24 17:00:20;;;;;;;1.73;0.60;;;;;;;15.88;47.95;98804.13;10462924;28;20068;-63
2023/09/24 17:05:41;;;;;;;3.40;0.80;;;;;;;15.77;47.97;98802.00;10462504;28;20057;-63
2023/09/24 17:11:01;;;;;;;3.35;1.05;;;;;;;15.63;48.89;98811.03;10462519;28;20044;-63
2023/09/24 17:16:23;;;;;;;2.97;1.00;;;;;;;15.52;49.16;98811.66;10462571;28;20076;-63
2023/09/24 17:21:43;;;;;;;3.72;1.35;;;;;;;15.42;49.34;98814.53;10462229;28;20170;-63
2023/09/24 17:27:04;;;;;;;4.13;1.70;;;;;;;15.33;50.02;98818.16;10461935;28;20456;-63
2023/09/24 17:32:25;;;;;;;6.28;3.97;;;;;;;15.27;50.70;98831.09;10461139;28;20052;-63
2023/09/24 17:37:47;;;;;;;5.25;3.03;;;;;;;15.15;50.77;98831.78;10461558;28;20120;-64
2023/09/24 17:43:09;;;;;;;7.53;3.83;;;;;;;15.06;51.25;98829.03;10461589;28;20083;-63
2023/09/24 17:48:30;;;;;;;7.32;2.47;;;;;;;14.93;51.42;98821.81;10461329;28;20059;-64
2023/09/24 17:53:51;;;;;;;3.97;2.08;;;;;;;14.87;51.78;98813.72;10461206;28;20068;-63
2023/09/24 17:59:12;;;;;;;5.18;2.40;;;;;;;14.79;51.93;98816.00;10461039;28;20098;-64
2023/09/24 18:04:33;;;;;;;3.13;1.70;;;;;;;14.73;52.17;98834.50;10460110;28;20072;-63
2023/09/24 18:09:54;;;;;;;3.40;1.83;;;;;;;14.65;52.43;98837.50;10459670;28;20057;-63
2023/09/24 18:15:15;;;;;;;5.18;1.92;;;;;;;14.57;52.98;98845.34;10460380;28;20080;-64
2023/09/24 18:20:36;;;;;;;4.05;2.22;;;;;;;14.49;53.27;98851.16;10460178;28;20053;-64
2023/09/24 18:25:56;;;;;;;2.92;1.80;;;;;;;14.39;52.86;98852.50;10459602;28;20073;-63
2023/09/24 18:31:17;;;;;;;2.13;1.30;;;;;;;14.35;53.42;98863.44;10459721;28;20141;-63
2023/09/24 18:36:38;;;;;;;4.55;1.50;;;;;;;14.32;53.93;98874.53;10459568;28;20076;-63
2023/09/24 18:41:59;;;;;;;3.97;1.60;;;;;;;14.29;53.89;98883.41;10459046;28;20072;-63
2023/09/24 18:47:20;;;;;;;5.47;1.23;;;;;;;14.27;54.21;98897.31;10459102;28;20060;-63
2023/09/24 18:52:41;;;;;;;2.60;1.45;;;;;;;14.23;54.33;98882.97;10457987;28;20084;-63
2023/09/24 18:58:02;;;;;;;2.83;1.30;;;;;;;14.22;54.56;98898.34;10458390;28;20041;-63
2023/09/24 19:03:23;;;;;;;2.88;1.10;;;;;;;14.20;54.51;98887.72;10456869;28;20521;-63
2023/09/24 19:08:44;;;;;;;3.78;0.98;;;;;;;14.18;54.80;98898.06;10458323;28;20044;-64
2023/09/24 19:14:05;;;;;;;2.72;1.30;;;;;;;14.13;54.89;98897.03;10458179;28;20045;-63
2023/09/24 19:19:25;;;;;;;2.30;1.00;;;;;;;14.10;55.01;98894.69;10457655;28;20072;-63
2023/09/24 19:24:46;;;;;;;3.83;1.60;;;;;;;14.08;55.80;98900.88;10458097;28;20120;-64
2023/09/24 19:30:09;;;;;;;2.08;1.30;;;;;;;14.11;55.50;98901.78;10442494;28;20057;-64
2023/09/24 19:35:30;;;;;;;3.00;1.17;;;;;;;14.08;55.64;98891.72;10457241;28;20134;-63
2023/09/24 19:40:58;;;;;;;2.13;1.05;;;;;;;13.99;55.89;98893.19;10456805;28;20494;-63
2023/09/24 19:46:19;;;;;;;5.72;1.17;;;;;;;13.95;55.99;98893.66;10456917;28;20048;-64
2023/09/24 19:51:40;;;;;;;3.60;0.93;;;;;;;13.94;56.25;98897.78;10456823;28;20061;-63
2023/09/24 19:57:01;;;;;;;2.88;1.33;;;;;;;13.92;56.30;98903.25;10456880;28;20068;-63
2023/09/24 20:02:22;;;;;;;2.65;1.13;;;;;;;13.96;56.65;98894.38;10456163;28;20080;-63
2023/09/24 20:07:43;;;;;;;2.53;1.00;;;;;;;13.99;56.64;98901.59;10455924;28;20048;-63
2023/09/24 20:13:04;;;;;;;4.18;1.20;;;;;;;14.01;56.99;98899.72;10456072;28;20087;-63
2023/09/24 20:18:26;;;;;;;2.72;1.10;;;;;;;14.07;57.08;98899.41;10460136;28;20486;-63
2023/09/24 20:23:47;;;;;;;5.43;1.45;;;;;;;14.04;57.01;98901.31;10464650;28;20041;-63
2023/09/24 20:29:08;;;;;;;4.55;2.00;;;;;;;13.98;57.29;98906.50;10463458;28;20398;-63
2023/09/24 20:34:29;;;;;;;4.93;1.90;;;;;;;13.94;57.51;98906.22;10463092;28;20463;-63
2023/09/24 20:39:49;;;;;;;2.75;1.40;;;;;;;13.83;57.21;98906.06;10449342;28;20128;-63
2023/09/24 20:45:11;;;;;;;3.55;1.33;;;;;;;13.67;57.68;98902.78;10463511;28;20071;-63
2023/09/24 20:50:37;;;;;;;4.70;1.10;;;;;;;13.57;57.92;98904.84;10463339;28;20483;-63
2023/09/24 20:55:58;;;;;;;2.85;1.15;;;;;;;13.44;57.86;98901.16;10461896;28;20402;-63
2023/09/24 21:01:19;;;;;;;4.25;1.80;;;;;;;13.28;57.87;98911.13;10461824;28;20072;-63
2023/09/24 21:06:40;;;;;;;2.53;1.23;;;;;;;13.21;59.03;98902.84;10463255;28;20537;-63
2023/09/24 21:12:00;;;;;;;3.53;1.60;;;;;;;13.12;59.35;98901.47;10461484;28;20072;-63
2023/09/24 21:17:21;;;;;;;3.25;1.50;;;;;;;13.07;59.99;98910.91;10462267;28;20069;-63
2023/09/24 21:22:42;;;;;;;2.72;1.25;;;;;;;12.99;60.14;98904.69;10462032;28;20387;-63
2023/09/24 21:28:03;;;;;;;2.88;1.50;;;;;;;12.93;61.02;98901.41;10461651;28;20045;-63
2023/09/24 21:33:24;;;;;;;3.13;1.35;;;;;;;12.79;60.46;98896.19;10460771;28;20048;-63
2023/09/24 21:38:50;;;;;;;2.88;1.67;;;;;;;12.70;61.75;98891.28;10461560;28;20045;-63
2023/09/24 21:44:11;;;;;;;2.60;1.55;;;;;;;12.61;61.90;98891.97;10460447;28;20129;-63
2023/09/24 21:49:32;;;;;;;2.58;1.55;;;;;;;12.55;62.31;98891.53;10461641;28;20491;-63
2023/09/24 21:54:54;;;;;;;3.03;1.17;;;;;;;12.49;61.79;98885.44;10460213;28;20098;-63
2023/09/24 22:00:19;;;;;;;2.60;1.38;;;;;;;12.42;62.23;98877.88;10460669;28;20071;-63
2023/09/24 22:05:41;;;;;;;1.88;1.27;;;;;;;12.26;62.52;98869.69;10460772;28;20053;-63
2023/09/24 22:11:02;;;;;;;3.83;1.83;;;;;;;12.19;63.02;98881.00;10431810;28;20399;-63
2023/09/24 22:16:22;;;;;;;3.60;1.52;;;;;;;12.15;63.65;98875.06;10459369;28;20523;-64
2023/09/24 22:21:43;;;;;;;4.53;1.70;;;;;;;12.09;63.39;98875.34;10460673;28;20037;-67
2023/09/24 22:27:04;;;;;;;1.98;1.25;;;;;;;12.00;63.90;98881.59;10461616;28;20079;-70
2023/09/24 22:32:25;;;;;;;2.35;1.20;;;;;;;11.91;63.94;98877.41;10462488;28;20041;-64
2023/09/24 22:37:47;;;;;;;5.97;1.50;;;;;;;11.81;64.43;98864.66;10460355;28;20103;-63
2023/09/24 22:43:07;;;;;;;4.47;1.90;;;;;;;11.67;64.09;98870.56;10459326;28;20068;-63
2023/09/24 22:48:46;;;;;;;5.78;1.85;;;;;;;11.55;65.03;98868.84;10457896;28;20048;-63
2023/09/24 22:54:07;;;;;;;2.65;1.73;;;;;;;11.49;65.19;98874.69;10457563;28;20452;-63
2023/09/24 22:59:28;;;;;;;3.45;1.30;;;;;;;11.49;65.86;98876.75;10458313;28;20471;-63
2023/09/24 23:04:50;;;;;;;3.50;1.77;;;;;;;11.47;65.87;98880.09;10458134;28;20060;-63
2023/09/24 23:10:11;;;;;;;3.85;1.80;;;;;;;11.43;65.93;98874.91;10456974;28;20045;-63
2023/09/24 23:15:32;;;;;;;2.60;1.60;;;;;;;11.35;66.26;98862.31;10457647;28;20487;-63
2023/09/24 23:20:53;;;;;;;2.88;1.85;;;;;;;11.31;67.64;98859.94;10456493;28;20451;-63
2023/09/24 23:26:17;;;;;;;2.97;1.65;;;;;;;11.27;66.85;98850.47;10457522;28;20045;-63
2023/09/24 23:31:37;;;;;;;4.45;1.40;;;;;;;11.22;66.99;98848.69;10456354;28;20044;-63
2023/09/24 23:36:59;;;;;;;3.00;2.20;;;;;;;11.12;67.48;98854.91;10456276;28;20045;-63
2023/09/24 23:42:24;;;;;;;1.95;1.67;;;;;;;11.11;67.76;98855.47;10442215;28;20065;-63
2023/09/24 23:47:45;;;;;;;1.92;1.33;;;;;;;11.12;68.00;98862.56;10456840;28;20450;-63
2023/09/24 23:53:08;;;;;;;2.53;1.75;;;;;;;11.10;67.78;98856.81;10456289;28;20060;-63
2023/09/24 23:58:28;;;;;;;4.15;1.83;;;;;;;10.98;68.00;98862.09;10456889;28;20045;-63
